首页
METAR-TAF:

METAR-TAF

机场 :

Wittering, 英格兰

纬度: 52-37N, 经度: 000-28W, 海拔: 84米

当前天气观测

该预报发布于1小时和9分钟前的13:50 UTC
风速15节,风向西转西南
温度 26°C
湿度 58%
气压 1019 hPa
能见度10公里或以上
散云层高于3500英尺

METAR: EGXT 221350Z 24015KT 9999 SCT035 26/17 Q1019 BLU

时间: 15:59 (14:59 UTC)

预报

该预报发布于1小时和39分钟前的13:20 UTC
预报有效从22日的 15点(UTC)到 22日的 18点(UTC)
风速16节,风向西转西南,有时为27节阵风
能见度10公里或以上
散云层高于3000英尺
成为
从 22日的 15点(UTC)到 22日的 18点(UTC)
风速14节,风向西南

TAF: EGXT 221320Z 2215/2218 24016G27KT 9999 SCT030 BECMG 2215/2218 23014KT

超过4000个机场的气象观测和天气预报(METAR&TAF报告)。

可查询的气象台以黄色和红色小点在地图上表示。

将鼠标移到小点上方,可查看气象台名称。

然后点击查看天气观测和预报。

如需切换地图:点击带黑十字的绿色按钮放大地图;点击带横线的绿色按钮缩小地图;或者点击绿色箭头查看邻近地区的地图。


METAR-TAF: